Time;durP1;ratioP1;P1;durP2;ratioP2;P2;SDS_P1;SDS_P2;PMS_P1;PMS_P2;Temp;Humidity;BMP_temperature;BMP_pressure;BME280_temperature;BME280_humidity;BME280_pressure;Samples;Min_cycle;Max_cycle;Signal;HPM_P1;HPM_P2
2021/04/03 00:00:09;;;;;;;3.20;2.13;;;24.40;39.30;;;;;;5070063;28;20024;-69
2021/04/03 00:02:34;;;;;;;3.40;2.10;;;24.40;38.80;;;;;;5089165;28;20051;-67
2021/04/03 00:05:00;;;;;;;3.42;2.00;;;24.40;38.80;;;;;;5083785;28;20028;-67
2021/04/03 00:07:26;;;;;;;3.85;1.98;;;24.40;38.70;;;;;;5085119;28;20383;-67
2021/04/03 00:09:52;;;;;;;3.58;2.10;;;24.40;38.70;;;;;;5080274;28;20028;-70
2021/04/03 00:12:17;;;;;;;4.43;2.10;;;24.40;38.70;;;;;;5066551;28;20024;-66
2021/04/03 00:14:45;;;;;;;2.92;1.95;;;24.40;38.70;;;;;;5071540;28;20020;-77
2021/04/03 00:17:11;;;;;;;5.45;2.25;;;24.40;38.60;;;;;;5071619;28;20043;-66
2021/04/03 00:19:37;;;;;;;3.15;1.85;;;24.50;38.60;;;;;;5089513;28;20112;-65
2021/04/03 00:22:03;;;;;;;3.40;1.83;;;24.40;38.60;;;;;;5090448;28;20693;-65
2021/04/03 00:24:30;;;;;;;4.60;2.53;;;24.50;38.60;;;;;;5068994;28;20044;-67
2021/04/03 00:26:56;;;;;;;3.95;2.17;;;24.50;38.70;;;;;;5089622;28;20042;-68
2021/04/03 00:29:21;;;;;;;3.10;2.00;;;24.50;38.60;;;;;;5090185;28;20517;-67
2021/04/03 00:31:47;;;;;;;3.60;1.90;;;24.50;38.50;;;;;;5088376;28;20362;-70
2021/04/03 00:34:13;;;;;;;3.40;2.05;;;24.50;38.50;;;;;;5078891;28;20486;-70
2021/04/03 00:36:38;;;;;;;3.22;2.00;;;24.50;38.50;;;;;;5088321;28;20083;-68
2021/04/03 00:39:04;;;;;;;2.67;1.70;;;24.50;38.40;;;;;;5085623;28;20043;-67
2021/04/03 00:41:30;;;;;;;2.60;1.80;;;24.50;38.40;;;;;;5088152;28;20028;-67
2021/04/03 00:43:55;;;;;;;2.97;1.83;;;24.50;38.30;;;;;;5087761;28;20418;-69
2021/04/03 00:46:21;;;;;;;2.97;1.90;;;24.50;38.30;;;;;;5080498;28;20529;-68
2021/04/03 00:48:48;;;;;;;2.80;1.70;;;24.50;38.20;;;;;;5073229;28;20051;-68
2021/04/03 00:51:13;;;;;;;3.05;1.80;;;24.50;38.30;;;;;;5086211;28;20414;-68
2021/04/03 00:53:39;;;;;;;2.50;1.65;;;24.60;38.30;;;;;;5081481;28;20056;-68
2021/04/03 00:56:06;;;;;;;3.33;1.80;;;24.50;38.20;;;;;;5077885;28;20667;-69
2021/04/03 00:58:32;;;;;;;4.15;1.85;;;24.50;38.10;;;;;;5074608;28;20342;-68
2021/04/03 01:00:58;;;;;;;3.25;1.85;;;24.40;38.00;;;;;;5081510;28;20115;-68
2021/04/03 01:03:25;;;;;;;3.72;1.83;;;24.40;38.10;;;;;;5066509;28;20421;-67
2021/04/03 01:05:51;;;;;;;2.58;1.73;;;24.40;38.10;;;;;;5075448;28;20051;-67
2021/04/03 01:08:17;;;;;;;2.92;1.90;;;24.40;38.00;;;;;;5077830;28;20024;-67
2021/04/03 01:10:49;;;;;;;4.15;1.90;;;24.30;38.00;;;;;;5084518;28;20512;-68
2021/04/03 01:13:47;;;;;;;2.70;1.77;;;24.30;38.00;;;;;;5085663;28;20054;-68
2021/04/03 01:16:33;;;;;;;2.92;1.70;;;24.30;38.00;;;;;;5086398;28;20036;-68
2021/04/03 01:19:43;;;;;;;2.53;1.60;;;24.30;38.00;;;;;;5087612;28;20028;-68
2021/04/03 01:22:36;;;;;;;3.20;1.65;;;24.20;37.90;;;;;;5030956;28;20719;-68
2021/04/03 01:25:29;;;;;;;3.17;1.95;;;24.20;37.90;;;;;;5081526;28;20362;-68
2021/04/03 01:28:01;;;;;;;2.60;1.70;;;24.10;37.90;;;;;;5083092;28;20090;-69
2021/04/03 01:30:27;;;;;;;2.50;1.63;;;24.10;37.90;;;;;;5094355;27;20461;-69
2021/04/03 01:33:10;;;;;;;2.10;1.50;;;24.10;37.90;;;;;;5086159;28;20033;-69
2021/04/03 01:35:38;;;;;;;3.00;1.60;;;24.10;37.90;;;;;;5085211;28;20074;-68
2021/04/03 01:38:10;;;;;;;1.87;1.30;;;24.10;38.50;;;;;;5089169;28;20024;-68
2021/04/03 01:40:37;;;;;;;3.17;1.50;;;24.10;38.00;;;;;;5089040;28;20102;-68
2021/04/03 01:43:09;;;;;;;2.20;1.40;;;24.00;37.90;;;;;;5069902;28;20047;-69
2021/04/03 01:45:37;;;;;;;3.10;1.38;;;24.00;38.00;;;;;;5089133;28;20024;-69
2021/04/03 01:48:05;;;;;;;2.42;1.48;;;24.00;38.00;;;;;;5087331;28;20382;-68
2021/04/03 01:50:31;;;;;;;2.88;1.63;;;24.00;37.90;;;;;;5089576;28;20099;-68
2021/04/03 01:52:58;;;;;;;2.30;1.40;;;23.90;37.90;;;;;;5069843;28;20028;-68
2021/04/03 01:55:25;;;;;;;2.95;1.60;;;23.90;37.90;;;;;;5074773;28;20107;-69
2021/04/03 01:57:52;;;;;;;3.08;1.40;;;23.90;37.90;;;;;;5072943;28;20055;-69
2021/04/03 02:00:27;;;;;;;1.83;1.27;;;23.90;37.90;;;;;;5074077;28;20028;-69
2021/04/03 02:02:53;;;;;;;2.45;1.33;;;23.80;37.90;;;;;;5077139;28;20164;-68
2021/04/03 02:05:21;;;;;;;2.17;1.13;;;23.80;37.90;;;;;;5088599;28;20028;-68
2021/04/03 02:07:48;;;;;;;2.53;1.40;;;23.80;38.00;;;;;;5082014;28;20138;-69
2021/04/03 02:10:17;;;;;;;1.95;1.20;;;23.80;37.90;;;;;;5088585;28;20383;-68
2021/04/03 02:12:46;;;;;;;3.05;1.33;;;23.70;38.40;;;;;;5088252;28;20032;-68
2021/04/03 02:15:13;;;;;;;2.17;1.27;;;23.70;37.90;;;;;;5088335;28;20028;-69
2021/04/03 02:17:41;;;;;;;1.65;1.10;;;23.70;38.00;;;;;;5088613;28;20020;-69
2021/04/03 02:20:09;;;;;;;2.38;1.42;;;23.70;38.00;;;;;;5086417;28;20028;-69
2021/04/03 02:22:36;;;;;;;1.70;1.10;;;23.60;37.90;;;;;;5076491;28;20530;-69
2021/04/03 02:25:14;;;;;;;2.17;1.30;;;23.60;38.00;;;;;;5074135;28;20073;-68
2021/04/03 02:27:41;;;;;;;1.67;1.10;;;23.60;38.00;;;;;;5083652;28;20040;-69
2021/04/03 02:30:15;;;;;;;1.58;1.00;;;23.60;38.00;;;;;;5063468;28;20460;-69
2021/04/03 02:32:43;;;;;;;1.77;1.00;;;23.60;38.00;;;;;;5078406;28;20024;-69
2021/04/03 02:35:09;;;;;;;1.70;1.00;;;23.60;38.00;;;;;;5069561;28;20032;-68
2021/04/03 02:37:35;;;;;;;1.60;1.00;;;23.60;38.00;;;;;;5082304;28;20047;-68
2021/04/03 02:40:03;;;;;;;1.55;1.08;;;23.60;38.10;;;;;;5065064;28;20406;-69
2021/04/03 02:42:29;;;;;;;2.83;1.30;;;23.50;38.00;;;;;;5062173;28;20031;-68
2021/04/03 02:45:02;;;;;;;1.58;1.05;;;23.50;38.00;;;;;;5082151;28;20084;-69
2021/04/03 02:47:54;;;;;;;1.60;1.00;;;23.50;38.00;;;;;;5069704;28;20028;-68
2021/04/03 02:50:26;;;;;;;1.40;0.90;;;23.50;38.00;;;;;;5079265;28;20386;-69
2021/04/03 02:52:53;;;;;;;1.75;1.00;;;23.40;38.00;;;;;;5065712;28;20082;-68
2021/04/03 02:55:23;;;;;;;1.50;0.90;;;23.40;38.00;;;;;;5055813;28;20030;-68
2021/04/03 02:57:50;;;;;;;1.73;1.10;;;23.50;38.10;;;;;;5077247;28;20024;-68
2021/04/03 03:00:18;;;;;;;1.92;1.10;;;23.40;38.10;;;;;;5086875;28;20047;-69
2021/04/03 03:02:44;;;;;;;2.33;1.20;;;23.40;38.10;;;;;;5090488;28;20028;-68
2021/04/03 03:05:12;;;;;;;1.77;1.00;;;23.40;38.10;;;;;;5090545;28;20085;-69
2021/04/03 03:07:42;;;;;;;1.42;0.98;;;23.40;38.10;;;;;;5086612;28;20024;-69
2021/04/03 03:10:09;;;;;;;1.80;1.00;;;23.40;38.10;;;;;;5077122;28;20036;-68
2021/04/03 03:12:37;;;;;;;1.88;1.10;;;23.40;38.10;;;;;;5089467;28;20016;-69
2021/04/03 03:15:04;;;;;;;1.48;1.08;;;23.30;38.10;;;;;;5087208;28;20600;-68
2021/04/03 03:17:30;;;;;;;1.52;1.10;;;23.30;38.10;;;;;;5058209;28;20028;-69
2021/04/03 03:19:59;;;;;;;1.88;1.10;;;23.30;38.10;;;;;;5091627;28;20040;-69
2021/04/03 03:22:25;;;;;;;1.98;1.00;;;23.30;38.20;;;;;;5080543;28;20063;-69
2021/04/03 03:24:51;;;;;;;1.48;0.80;;;23.30;38.20;;;;;;5071024;28;20036;-68
2021/04/03 03:27:18;;;;;;;1.35;0.90;;;23.30;38.20;;;;;;5078807;28;20474;-68
2021/04/03 03:29:45;;;;;;;2.25;1.20;;;23.20;38.10;;;;;;5082017;28;20439;-69
2021/04/03 03:32:11;;;;;;;2.20;1.13;;;23.20;38.10;;;;;;5088549;28;20041;-68
2021/04/03 03:34:37;;;;;;;1.45;0.95;;;23.20;38.20;;;;;;5075972;28;20024;-68
2021/04/03 03:37:03;;;;;;;1.48;0.90;;;23.20;38.20;;;;;;5089004;28;20410;-68
2021/04/03 03:39:30;;;;;;;1.50;1.00;;;23.20;38.20;;;;;;5079281;28;20047;-69
2021/04/03 03:42:01;;;;;;;1.35;0.93;;;23.20;38.20;;;;;;5079528;28;20079;-69
2021/04/03 03:44:27;;;;;;;1.20;0.95;;;23.20;38.20;;;;;;5074536;28;20569;-68
2021/04/03 03:46:53;;;;;;;1.48;0.90;;;23.10;38.20;;;;;;5055847;28;20039;-68
2021/04/03 03:49:18;;;;;;;2.10;1.00;;;23.10;38.20;;;;;;5089240;28;20362;-68
2021/04/03 03:51:44;;;;;;;1.90;1.13;;;23.10;38.20;;;;;;5091774;28;20032;-69
2021/04/03 03:54:10;;;;;;;1.80;1.10;;;23.10;38.20;;;;;;5082081;28;20047;-68
2021/04/03 03:56:35;;;;;;;2.10;1.00;;;23.10;38.20;;;;;;5087880;28;20474;-69
2021/04/03 03:59:02;;;;;;;1.85;1.00;;;23.10;38.30;;;;;;5072309;28;20028;-68
2021/04/03 04:01:27;;;;;;;1.60;1.02;;;23.10;38.30;;;;;;5071883;28;20032;-68
2021/04/03 04:03:53;;;;;;;1.15;0.93;;;23.10;38.30;;;;;;5078419;28;20386;-69
2021/04/03 04:06:18;;;;;;;1.23;0.80;;;23.10;38.30;;;;;;5071801;28;20032;-69
2021/04/03 04:08:44;;;;;;;1.73;1.10;;;23.00;38.30;;;;;;5053214;28;20132;-68
2021/04/03 04:11:12;;;;;;;1.15;0.82;;;23.00;38.30;;;;;;5070460;28;20052;-69
2021/04/03 04:13:38;;;;;;;1.75;1.02;;;23.00;38.30;;;;;;5080768;28;20389;-69
2021/04/03 04:16:05;;;;;;;1.45;0.95;;;23.00;38.30;;;;;;5077068;28;20062;-69
2021/04/03 04:18:31;;;;;;;1.85;1.10;;;23.00;38.30;;;;;;5070493;28;20099;-68
2021/04/03 04:20:57;;;;;;;2.90;1.23;;;23.00;38.40;;;;;;5076867;28;20047;-68
2021/04/03 04:23:23;;;;;;;1.38;0.90;;;23.00;38.40;;;;;;5089937;28;20106;-69
2021/04/03 04:25:48;;;;;;;1.85;0.90;;;23.00;38.40;;;;;;5078697;28;20127;-69
2021/04/03 04:28:14;;;;;;;2.03;1.20;;;23.00;38.40;;;;;;5089730;28;20458;-69
2021/04/03 04:30:39;;;;;;;2.13;1.00;;;23.00;38.40;;;;;;5071898;28;20024;-68
2021/04/03 04:33:05;;;;;;;1.92;1.00;;;23.00;38.40;;;;;;5088248;28;20095;-69
2021/04/03 04:35:31;;;;;;;1.65;1.10;;;22.90;38.40;;;;;;5069568;28;20111;-68
2021/04/03 04:37:56;;;;;;;1.27;0.90;;;22.90;38.40;;;;;;5067826;28;20041;-69
2021/04/03 04:40:22;;;;;;;1.60;1.05;;;22.90;38.40;;;;;;5071295;28;20020;-68
2021/04/03 04:42:50;;;;;;;1.55;0.80;;;22.90;38.40;;;;;;5081640;28;20471;-69
2021/04/03 04:45:15;;;;;;;1.20;0.82;;;22.90;38.40;;;;;;5070702;28;20116;-71
2021/04/03 04:47:41;;;;;;;2.10;0.90;;;22.90;38.40;;;;;;5069297;28;20483;-69
2021/04/03 04:50:09;;;;;;;2.45;1.00;;;22.80;38.40;;;;;;5086086;28;20386;-68
2021/04/03 04:52:35;;;;;;;1.40;0.90;;;22.80;38.40;;;;;;5071938;28;20124;-68
2021/04/03 04:55:02;;;;;;;1.30;0.80;;;22.80;38.40;;;;;;5077682;28;20075;-68
2021/04/03 04:57:28;;;;;;;1.90;1.10;;;22.80;38.40;;;;;;5068242;28;20033;-68
2021/04/03 04:59:55;;;;;;;1.40;0.90;;;22.80;38.40;;;;;;5069494;28;20033;-68
2021/04/03 05:02:23;;;;;;;1.25;0.80;;;22.80;38.40;;;;;;5073513;28;20498;-69
2021/04/03 05:04:49;;;;;;;2.20;1.00;;;22.80;38.40;;;;;;5088913;28;20028;-69
2021/04/03 05:07:15;;;;;;;1.55;0.90;;;22.80;38.40;;;;;;5089407;28;20026;-68
2021/04/03 05:09:41;;;;;;;1.33;0.88;;;22.80;38.40;;;;;;5087206;28;20028;-68
2021/04/03 05:12:07;;;;;;;1.10;0.80;;;22.80;38.40;;;;;;5069190;28;20446;-69
2021/04/03 05:14:33;;;;;;;1.98;1.00;;;22.80;38.40;;;;;;5083187;28;20032;-69
2021/04/03 05:16:58;;;;;;;1.27;0.90;;;22.80;38.40;;;;;;5068108;28;20032;-69
2021/04/03 05:19:24;;;;;;;1.60;1.08;;;22.80;38.40;;;;;;5069131;28;20029;-69
2021/04/03 05:21:50;;;;;;;1.25;0.75;;;22.80;38.50;;;;;;5080616;28;20033;-69
2021/04/03 05:24:16;;;;;;;1.95;0.90;;;22.70;38.40;;;;;;5079517;28;20093;-69
2021/04/03 05:26:41;;;;;;;1.35;0.77;;;22.80;38.40;;;;;;5083454;28;20028;-68
2021/04/03 05:29:07;;;;;;;1.10;0.80;;;22.70;38.40;;;;;;5085495;28;20029;-68
2021/04/03 05:31:33;;;;;;;1.90;0.90;;;22.80;38.40;;;;;;5088544;28;20074;-69
2021/04/03 05:33:58;;;;;;;1.33;0.80;;;22.70;38.40;;;;;;5084865;28;20082;-69
2021/04/03 05:36:24;;;;;;;2.03;0.80;;;22.70;38.40;;;;;;5069750;28;20033;-69
2021/04/03 05:38:50;;;;;;;1.45;0.80;;;22.70;38.40;;;;;;5082799;28;20043;-70
2021/04/03 05:41:15;;;;;;;1.40;0.77;;;22.70;38.40;;;;;;5089468;28;20099;-69
2021/04/03 05:43:46;;;;;;;0.88;0.80;;;22.70;38.40;;;;;;5083089;28;20044;-69
2021/04/03 05:46:13;;;;;;;1.33;0.90;;;22.70;38.40;;;;;;5068647;28;20102;-68
2021/04/03 05:48:40;;;;;;;1.27;0.90;;;22.70;38.40;;;;;;5088957;28;20028;-68
2021/04/03 05:51:06;;;;;;;1.70;0.95;;;22.70;38.40;;;;;;5088889;28;20036;-68
2021/04/03 05:53:34;;;;;;;1.52;0.80;;;22.70;38.40;;;;;;5087755;28;20522;-69
2021/04/03 05:56:00;;;;;;;1.52;0.90;;;22.70;38.40;;;;;;5076913;28;20056;-69
2021/04/03 05:58:26;;;;;;;1.23;0.90;;;22.60;38.40;;;;;;5068407;28;20442;-68
2021/04/03 06:00:53;;;;;;;1.00;0.90;;;22.70;38.40;;;;;;5069276;28;20056;-68
2021/04/03 06:03:20;;;;;;;1.35;0.80;;;22.60;38.40;;;;;;5068654;28;20101;-68
2021/04/03 06:05:49;;;;;;;1.23;0.90;;;22.70;38.40;;;;;;5075488;28;20032;-68
2021/04/03 06:08:15;;;;;;;1.05;0.73;;;22.70;38.40;;;;;;5067866;28;20824;-68
2021/04/03 06:10:40;;;;;;;2.05;1.00;;;22.60;38.40;;;;;;5069484;28;20036;-68
2021/04/03 06:13:18;;;;;;;1.48;0.90;;;22.60;38.40;;;;;;5070156;28;20109;-68
2021/04/03 06:15:44;;;;;;;1.77;0.90;;;22.60;38.40;;;;;;5071044;28;20032;-68
2021/04/03 06:18:11;;;;;;;3.08;1.33;;;22.60;38.40;;;;;;5073475;28;20146;-70
2021/04/03 06:20:42;;;;;;;1.30;0.85;;;22.60;38.40;;;;;;5072000;28;20364;-68
2021/04/03 06:23:10;;;;;;;1.52;0.90;;;22.60;38.40;;;;;;5087095;28;20110;-69
2021/04/03 06:25:56;;;;;;;1.73;1.05;;;22.60;38.40;;;;;;5071276;28;20048;-69
2021/04/03 06:28:32;;;;;;;2.63;1.33;;;22.60;38.40;;;;;;5069768;28;20032;-69
2021/04/03 06:31:11;;;;;;;2.03;1.10;;;22.60;38.40;;;;;;5077391;28;20490;-68
2021/04/03 06:33:37;;;;;;;1.88;1.00;;;22.60;38.40;;;;;;5074502;28;20020;-69
2021/04/03 06:36:14;;;;;;;1.73;1.02;;;22.60;38.40;;;;;;5076477;28;20081;-68
2021/04/03 06:38:41;;;;;;;1.75;0.90;;;22.60;38.40;;;;;;5067860;28;20422;-68
2021/04/03 06:41:27;;;;;;;1.38;0.90;;;22.60;38.40;;;;;;5069602;28;20056;-68
2021/04/03 06:44:12;;;;;;;2.30;1.00;;;22.60;38.40;;;;;;5067442;28;20055;-69
2021/04/03 06:46:43;;;;;;;1.80;0.98;;;22.50;38.30;;;;;;5075910;28;20051;-68
2021/04/03 06:49:09;;;;;;;1.88;1.00;;;22.60;38.40;;;;;;5061023;28;20086;-68
2021/04/03 06:51:36;;;;;;;1.52;1.00;;;22.60;38.40;;;;;;5085421;28;20588;-68
2021/04/03 06:54:03;;;;;;;1.73;0.90;;;22.50;38.40;;;;;;5053629;28;20031;-68
2021/04/03 06:56:31;;;;;;;1.10;0.90;;;22.50;38.40;;;;;;5054574;28;20533;-69
2021/04/03 06:59:06;;;;;;;1.75;1.10;;;22.50;38.40;;;;;;5074266;28;20166;-69
2021/04/03 07:01:49;;;;;;;1.25;0.85;;;22.50;38.40;;;;;;5083806;28;20036;-68
2021/04/03 07:04:26;;;;;;;1.77;1.20;;;22.50;38.40;;;;;;5082815;28;20026;-68
2021/04/03 07:06:53;;;;;;;2.10;1.00;;;22.50;38.40;;;;;;5081335;28;20034;-68
2021/04/03 07:09:20;;;;;;;1.73;0.98;;;22.50;38.40;;;;;;5087284;28;20104;-69
2021/04/03 07:11:47;;;;;;;2.03;1.10;;;22.50;38.40;;;;;;5074998;28;20039;-69
2021/04/03 07:14:19;;;;;;;1.55;0.90;;;22.50;38.40;;;;;;5066790;28;20043;-69
2021/04/03 07:16:46;;;;;;;1.45;0.90;;;22.40;38.40;;;;;;5085729;28;20775;-68
2021/04/03 07:19:13;;;;;;;1.90;1.10;;;22.50;38.40;;;;;;5087378;28;20024;-68
2021/04/03 07:21:40;;;;;;;2.90;1.38;;;22.40;38.40;;;;;;5074035;28;20359;-69
2021/04/03 07:24:09;;;;;;;1.42;1.00;;;22.50;38.40;;;;;;5066196;28;20047;-68
2021/04/03 07:26:36;;;;;;;1.50;0.98;;;22.50;38.40;;;;;;5085844;28;20024;-69
2021/04/03 07:29:02;;;;;;;1.52;1.00;;;22.50;38.50;;;;;;5073044;28;20036;-69
2021/04/03 07:31:39;;;;;;;1.65;1.05;;;22.40;38.40;;;;;;5086297;28;20051;-68
2021/04/03 07:34:05;;;;;;;1.20;0.85;;;22.50;38.50;;;;;;5065703;28;20041;-68
2021/04/03 07:36:38;;;;;;;1.50;0.88;;;22.50;38.50;;;;;;5081734;28;20125;-68
2021/04/03 07:39:25;;;;;;;1.80;1.10;;;22.40;38.50;;;;;;5076364;28;20037;-68
2021/04/03 07:41:51;;;;;;;1.73;1.02;;;22.50;38.50;;;;;;5079630;28;20117;-68
2021/04/03 07:44:16;;;;;;;2.17;1.00;;;22.40;38.50;;;;;;5082229;28;20097;-69
2021/04/03 07:46:46;;;;;;;1.77;1.10;;;22.50;38.50;;;;;;5083065;28;20582;-68
2021/04/03 07:49:31;;;;;;;;;;;22.40;38.50;;;;;;5088791;28;20035;-68
2021/04/03 07:51:56;;;;;;;1.98;1.00;;;22.40;38.50;;;;;;5082665;28;19938;-68
2021/04/03 07:54:30;;;;;;;1.70;0.90;;;22.50;38.60;;;;;;5081007;28;20446;-69
2021/04/03 07:56:59;;;;;;;1.58;0.90;;;22.40;38.50;;;;;;5072050;28;20028;-68
2021/04/03 07:59:43;;;;;;;1.23;0.88;;;22.50;38.60;;;;;;5069816;28;20090;-68
2021/04/03 08:02:14;;;;;;;1.45;0.90;;;22.40;38.60;;;;;;5062055;28;20044;-69
2021/04/03 08:04:40;;;;;;;2.35;0.90;;;22.50;38.60;;;;;;5074880;28;20036;-68
2021/04/03 08:07:05;;;;;;;1.90;1.00;;;22.40;38.60;;;;;;5070937;28;20033;-68
2021/04/03 08:09:32;;;;;;;2.38;1.10;;;22.40;38.60;;;;;;5073746;28;20111;-68
2021/04/03 08:11:58;;;;;;;1.30;0.90;;;22.40;38.60;;;;;;5085004;28;20028;-68
2021/04/03 08:14:27;;;;;;;1.38;0.90;;;22.40;38.60;;;;;;5074376;28;20027;-68
2021/04/03 08:16:53;;;;;;;1.80;0.90;;;22.40;38.60;;;;;;5071135;28;20032;-68
2021/04/03 08:19:31;;;;;;;1.90;1.00;;;22.40;38.60;;;;;;5086007;28;20371;-68
2021/04/03 08:21:57;;;;;;;1.88;0.98;;;22.40;38.70;;;;;;5080317;28;20111;-69
2021/04/03 08:24:23;;;;;;;1.80;0.77;;;22.40;38.70;;;;;;5070392;28;20082;-69
2021/04/03 08:26:51;;;;;;;1.80;0.90;;;22.40;38.70;;;;;;5076024;28;20062;-68
2021/04/03 08:29:25;;;;;;;2.58;1.00;;;22.40;38.70;;;;;;5073234;28;20062;-69
2021/04/03 08:31:52;;;;;;;1.63;0.90;;;22.40;39.20;;;;;;5082038;28;20033;-68
2021/04/03 08:34:18;;;;;;;2.38;0.98;;;22.40;38.70;;;;;;5070715;28;20107;-68
2021/04/03 08:36:44;;;;;;;1.73;0.90;;;22.40;38.70;;;;;;5067688;28;20126;-68
2021/04/03 08:39:12;;;;;;;1.85;0.98;;;22.40;38.70;;;;;;5084845;28;20077;-68
2021/04/03 08:41:41;;;;;;;1.10;0.80;;;22.40;38.70;;;;;;5083897;28;20089;-68
2021/04/03 08:44:25;;;;;;;1.45;0.90;;;22.40;38.70;;;;;;5073382;28;20032;-68
2021/04/03 08:46:53;;;;;;;2.05;0.90;;;22.40;38.70;;;;;;5084605;28;20467;-68
2021/04/03 08:49:24;;;;;;;1.27;0.70;;;22.40;38.70;;;;;;5089994;28;20031;-68
2021/04/03 08:51:50;;;;;;;1.50;0.90;;;22.40;38.70;;;;;;5082032;28;20485;-68
2021/04/03 08:54:16;;;;;;;1.17;0.80;;;22.40;38.70;;;;;;5078699;28;20097;-68
2021/04/03 08:56:42;;;;;;;1.33;0.85;;;22.40;38.70;;;;;;5079423;28;20036;-68
2021/04/03 08:59:15;;;;;;;1.52;0.90;;;22.40;38.70;;;;;;5083536;28;20408;-68
2021/04/03 09:01:47;;;;;;;1.38;0.80;;;22.40;38.80;;;;;;5076234;28;20500;-68
2021/04/03 09:04:14;;;;;;;1.23;0.82;;;22.40;38.80;;;;;;5074340;28;20442;-68
2021/04/03 09:06:47;;;;;;;2.30;0.95;;;22.40;38.80;;;;;;5083142;28;20395;-68
2021/04/03 09:09:15;;;;;;;1.50;0.70;;;22.40;39.30;;;;;;5088083;28;20103;-68
2021/04/03 09:11:54;;;;;;;2.05;0.90;;;22.40;38.80;;;;;;5088357;28;20028;-67
2021/04/03 09:14:24;;;;;;;2.03;0.80;;;22.40;38.80;;;;;;5074265;28;20016;-68
2021/04/03 09:16:50;;;;;;;1.05;0.73;;;22.40;38.80;;;;;;5087320;28;20028;-68
2021/04/03 09:19:32;;;;;;;2.30;0.90;;;22.40;38.80;;;;;;5089097;28;20109;-68
2021/04/03 09:21:59;;;;;;;2.30;0.90;;;22.40;38.80;;;;;;5072461;28;20032;-68
2021/04/03 09:24:37;;;;;;;1.50;0.80;;;22.40;38.80;;;;;;5062718;28;20036;-68
2021/04/03 09:27:09;;;;;;;2.95;0.98;;;22.40;38.80;;;;;;5085213;28;20084;-68
2021/04/03 09:29:35;;;;;;;1.33;0.80;;;22.40;38.80;;;;;;5079586;28;20099;-68
2021/04/03 09:32:06;;;;;;;1.38;0.80;;;22.40;38.80;;;;;;5082133;28;20118;-68
2021/04/03 09:34:33;;;;;;;1.55;0.70;;;22.40;38.80;;;;;;5068623;28;20474;-68
2021/04/03 09:37:10;;;;;;;1.60;0.80;;;22.40;38.80;;;;;;5084963;28;20031;-68
2021/04/03 09:39:53;;;;;;;1.38;0.70;;;22.40;38.80;;;;;;5087973;28;20049;-68
2021/04/03 09:42:22;;;;;;;1.67;0.80;;;22.40;38.80;;;;;;5081141;28;20028;-68
2021/04/03 09:44:49;;;;;;;1.83;0.90;;;22.40;38.80;;;;;;5082786;28;20043;-68
2021/04/03 09:47:16;;;;;;;1.40;0.90;;;22.40;38.80;;;;;;5082352;28;20115;-68
2021/04/03 09:49:43;;;;;;;1.67;0.82;;;22.40;38.80;;;;;;5088095;28;20028;-68
2021/04/03 09:52:10;;;;;;;1.35;0.70;;;22.40;38.80;;;;;;5061243;28;20029;-68
2021/04/03 09:54:41;;;;;;;2.53;1.05;;;22.40;38.80;;;;;;5085131;28;20039;-68
2021/04/03 09:57:07;;;;;;;1.45;0.93;;;22.40;38.80;;;;;;5072474;28;20074;-68
2021/04/03 09:59:33;;;;;;;1.00;0.80;;;22.40;38.80;;;;;;5082757;28;20028;-68
2021/04/03 10:02:00;;;;;;;1.75;1.00;;;22.40;38.80;;;;;;5076800;28;20047;-68
2021/04/03 10:04:26;;;;;;;1.52;0.85;;;22.40;38.80;;;;;;5084971;28;20482;-68
2021/04/03 10:06:53;;;;;;;1.65;0.80;;;22.40;38.80;;;;;;5087825;28;20361;-68
2021/04/03 10:09:19;;;;;;;1.55;0.80;;;22.40;38.80;;;;;;5066893;28;20020;-68
2021/04/03 10:11:45;;;;;;;1.83;0.80;;;22.40;38.80;;;;;;5069063;28;20205;-69
2021/04/03 10:14:11;;;;;;;0.90;0.60;;;22.40;38.80;;;;;;5079636;28;20507;-68
2021/04/03 10:16:37;;;;;;;0.90;0.70;;;22.40;38.80;;;;;;5079805;28;20113;-69
2021/04/03 10:19:03;;;;;;;1.27;0.70;;;22.40;38.80;;;;;;5087664;28;20028;-68
2021/04/03 10:21:29;;;;;;;0.90;0.70;;;22.40;38.80;;;;;;5088117;28;20028;-68
2021/04/03 10:23:54;;;;;;;1.05;0.63;;;22.40;38.80;;;;;;5084303;28;20035;-68
2021/04/03 10:26:20;;;;;;;1.02;0.68;;;22.40;38.80;;;;;;5083558;28;20035;-68
2021/04/03 10:28:46;;;;;;;0.98;0.70;;;22.40;38.80;;;;;;5083193;28;20024;-69
2021/04/03 10:31:13;;;;;;;2.15;0.70;;;22.40;38.80;;;;;;5084602;28;20459;-68
2021/04/03 10:33:39;;;;;;;1.48;0.80;;;22.40;38.80;;;;;;5084362;28;20020;-69
2021/04/03 10:36:05;;;;;;;1.52;0.60;;;22.40;38.80;;;;;;5084990;28;20035;-68
2021/04/03 10:38:32;;;;;;;1.00;0.70;;;22.40;38.80;;;;;;5078041;28;20028;-68
2021/04/03 10:40:57;;;;;;;1.13;0.70;;;22.40;38.80;;;;;;5077030;28;20028;-69
2021/04/03 10:43:23;;;;;;;2.22;0.70;;;22.40;38.80;;;;;;5078526;28;20024;-67
2021/04/03 10:45:49;;;;;;;1.67;0.90;;;22.40;38.80;;;;;;5082164;28;20089;-67
2021/04/03 10:48:14;;;;;;;1.73;0.80;;;22.40;38.80;;;;;;5085158;28;20128;-67
2021/04/03 10:50:41;;;;;;;1.27;0.65;;;22.40;38.80;;;;;;5079963;28;20095;-68
2021/04/03 10:53:07;;;;;;;1.35;0.70;;;22.40;38.80;;;;;;5082717;28;20079;-69
2021/04/03 10:55:33;;;;;;;1.30;0.70;;;22.40;38.80;;;;;;5084932;28;20055;-68
2021/04/03 10:57:59;;;;;;;2.00;0.80;;;22.40;38.80;;;;;;5077840;28;20415;-68
2021/04/03 11:00:25;;;;;;;1.52;0.70;;;22.40;38.80;;;;;;5072622;28;20107;-67
2021/04/03 11:02:51;;;;;;;0.88;0.70;;;22.40;38.80;;;;;;5080697;28;20024;-68
2021/04/03 11:05:17;;;;;;;1.95;0.70;;;22.40;38.80;;;;;;5081992;28;20032;-67
2021/04/03 11:07:43;;;;;;;1.52;0.70;;;22.30;38.80;;;;;;5079816;28;20024;-68
2021/04/03 11:10:09;;;;;;;1.23;0.70;;;22.40;38.90;;;;;;5057229;28;20039;-65
2021/04/03 11:12:35;;;;;;;1.10;0.70;;;22.40;39.00;;;;;;5083392;28;20020;-64
2021/04/03 11:15:01;;;;;;;1.95;0.75;;;22.40;38.90;;;;;;5083599;28;20031;-65
2021/04/03 11:17:26;;;;;;;2.95;1.02;;;22.40;39.00;;;;;;5064660;28;20061;-65
2021/04/03 11:19:52;;;;;;;1.17;0.70;;;22.50;39.00;;;;;;5071868;28;20171;-65
2021/04/03 11:22:17;;;;;;;1.33;0.80;;;22.50;39.00;;;;;;5079589;28;20577;-66
2021/04/03 11:24:43;;;;;;;1.58;0.85;;;22.50;38.90;;;;;;5074771;28;20052;-65
2021/04/03 11:27:09;;;;;;;1.88;0.77;;;22.60;38.90;;;;;;5066323;28;20032;-66
2021/04/03 11:29:34;;;;;;;4.03;0.90;;;22.60;39.00;;;;;;5082919;28;20932;-66
2021/04/03 11:32:00;;;;;;;1.65;0.95;;;22.60;38.90;;;;;;5079577;28;20063;-65
2021/04/03 11:34:26;;;;;;;1.13;0.63;;;22.60;38.90;;;;;;5077114;28;20050;-66
2021/04/03 11:36:52;;;;;;;1.27;0.70;;;22.60;38.80;;;;;;5072581;28;20063;-64
2021/04/03 11:39:17;;;;;;;1.30;0.70;;;22.70;38.80;;;;;;5079707;28;20386;-65
2021/04/03 11:41:43;;;;;;;1.55;0.80;;;22.70;38.80;;;;;;5063440;28;20052;-63
2021/04/03 11:44:09;;;;;;;1.38;0.80;;;22.70;38.80;;;;;;5065250;28;20770;-64
2021/04/03 11:46:34;;;;;;;2.53;0.90;;;22.80;38.90;;;;;;5068626;28;20043;-65
2021/04/03 11:49:00;;;;;;;1.50;0.80;;;22.80;38.90;;;;;;5077651;28;20032;-64
2021/04/03 11:51:26;;;;;;;1.80;0.80;;;22.80;38.80;;;;;;5077881;28;20480;-66
2021/04/03 11:53:52;;;;;;;1.90;0.80;;;22.80;38.80;;;;;;5076368;28;20480;-65
2021/04/03 11:56:17;;;;;;;2.17;0.85;;;22.90;38.80;;;;;;5086143;28;20070;-66
2021/04/03 11:58:43;;;;;;;1.60;0.73;;;22.80;38.70;;;;;;5083496;28;20090;-62
2021/04/03 12:01:10;;;;;;;1.25;0.75;;;22.90;38.80;;;;;;5077325;28;20151;-66
2021/04/03 12:03:35;;;;;;;1.65;0.80;;;23.00;38.80;;;;;;5086616;28;20028;-65
2021/04/03 12:06:01;;;;;;;2.33;0.73;;;23.00;38.80;;;;;;5079460;28;20087;-66
2021/04/03 12:08:27;;;;;;;1.30;0.70;;;23.00;38.80;;;;;;5073484;28;20127;-64
2021/04/03 12:10:52;;;;;;;1.80;0.75;;;23.00;38.70;;;;;;5081724;28;20024;-67
2021/04/03 12:13:18;;;;;;;2.15;0.80;;;23.00;38.80;;;;;;5058862;28;20136;-65
2021/04/03 12:15:44;;;;;;;1.13;0.70;;;23.10;38.80;;;;;;5081086;28;20033;-68
2021/04/03 12:18:09;;;;;;;1.10;0.70;;;23.10;38.80;;;;;;5073162;28;20039;-63
2021/04/03 12:20:35;;;;;;;1.25;0.75;;;23.10;38.70;;;;;;5085243;28;20034;-66
2021/04/03 12:23:01;;;;;;;1.63;0.70;;;23.10;38.60;;;;;;5085424;28;20110;-63
2021/04/03 12:25:28;;;;;;;1.40;0.90;;;23.10;38.60;;;;;;5067906;28;20035;-65
2021/04/03 12:27:53;;;;;;;1.40;0.70;;;23.20;38.60;;;;;;5066501;28;20043;-68
2021/04/03 12:30:20;;;;;;;2.05;0.80;;;23.20;38.60;;;;;;5084910;28;20113;-68
2021/04/03 12:32:45;;;;;;;1.88;0.70;;;23.20;38.50;;;;;;5062510;28;20030;-66
2021/04/03 12:35:11;;;;;;;1.60;0.80;;;23.20;38.60;;;;;;5082715;28;20043;-67
2021/04/03 12:37:37;;;;;;;1.58;0.80;;;23.30;38.50;;;;;;5079031;28;20631;-67
2021/04/03 12:40:05;;;;;;;2.60;0.80;;;23.30;38.40;;;;;;5068620;28;20042;-69
2021/04/03 12:42:30;;;;;;;2.13;0.82;;;23.30;38.40;;;;;;5082630;28;20070;-67
2021/04/03 12:44:56;;;;;;;1.20;0.73;;;23.30;38.30;;;;;;5083851;28;20586;-68
2021/04/03 12:47:22;;;;;;;2.55;0.82;;;23.30;38.30;;;;;;5063676;28;20102;-67
2021/04/03 12:49:47;;;;;;;1.42;0.63;;;23.40;38.40;;;;;;5072833;28;20451;-68
2021/04/03 12:52:14;;;;;;;3.30;0.73;;;23.40;38.40;;;;;;5078664;28;20032;-67